createdAt,value
2018-12-15T00:01:29.944Z,2.70
2018-12-15T00:03:58.107Z,2.60
2018-12-15T00:06:26.304Z,2.60
2018-12-15T00:08:54.483Z,2.60
2018-12-15T00:11:22.660Z,2.60
2018-12-15T00:13:50.832Z,2.60
2018-12-15T00:16:19.163Z,2.70
2018-12-15T00:18:47.371Z,2.70
2018-12-15T00:21:15.505Z,2.70
2018-12-15T00:23:43.682Z,2.70
2018-12-15T00:26:11.855Z,2.60
2018-12-15T00:28:40.059Z,2.70
2018-12-15T00:31:08.374Z,2.70
2018-12-15T00:33:36.551Z,2.60
2018-12-15T00:36:04.765Z,2.60
2018-12-15T00:38:33.083Z,2.60
2018-12-15T00:41:01.335Z,2.60
2018-12-15T00:43:29.491Z,2.60
2018-12-15T00:45:57.635Z,2.50
2018-12-15T00:48:26.047Z,2.40
2018-12-15T00:50:54.572Z,2.40
2018-12-15T00:53:22.711Z,2.20
2018-12-15T00:55:50.871Z,2.20
2018-12-15T00:58:19.013Z,2.20
2018-12-15T01:00:47.237Z,2.20
2018-12-15T01:03:15.682Z,2.20
2018-12-15T01:05:43.791Z,2.20
2018-12-15T01:08:12.047Z,2.20
2018-12-15T01:10:40.407Z,2.20
2018-12-15T01:13:08.627Z,2.20
2018-12-15T01:15:42.243Z,2.20
2018-12-15T01:18:10.433Z,2.20
2018-12-15T01:20:38.567Z,2.20
2018-12-15T01:23:06.710Z,2.10
2018-12-15T01:25:34.841Z,2.10
2018-12-15T01:28:03.083Z,2.10
2018-12-15T01:30:31.353Z,2.20
2018-12-15T01:32:59.570Z,2.20
2018-12-15T01:35:27.712Z,2.20
2018-12-15T01:37:55.911Z,2.20
2018-12-15T01:40:24.151Z,2.10
2018-12-15T01:42:52.327Z,2.10
2018-12-15T01:45:20.440Z,2.10
2018-12-15T01:47:48.667Z,2.10
2018-12-15T01:50:16.779Z,2.00
2018-12-15T01:52:44.937Z,2.00
2018-12-15T01:55:13.191Z,2.10
2018-12-15T01:57:41.391Z,2.20
2018-12-15T02:00:09.731Z,2.20
2018-12-15T02:02:37.996Z,2.20
2018-12-15T02:05:06.204Z,2.10
2018-12-15T02:07:34.323Z,2.10
2018-12-15T02:10:02.571Z,2.10
2018-12-15T02:12:31.295Z,2.00
2018-12-15T02:14:59.460Z,2.00
2018-12-15T02:17:33.436Z,2.00
2018-12-15T02:19:57.840Z,2.10
2018-12-15T02:22:26.035Z,2.10
2018-12-15T02:24:54.152Z,2.10
2018-12-15T02:27:22.351Z,2.10
2018-12-15T02:29:50.500Z,2.10
2018-12-15T02:32:18.672Z,2.10
2018-12-15T02:34:46.916Z,2.10
2018-12-15T02:37:15.128Z,2.10
2018-12-15T02:39:43.369Z,2.10
2018-12-15T02:42:11.575Z,2.10
2018-12-15T02:44:39.716Z,2.20
2018-12-15T02:47:07.913Z,2.20
2018-12-15T02:49:36.136Z,2.30
2018-12-15T02:52:04.335Z,2.30
2018-12-15T02:54:32.530Z,2.30
2018-12-15T02:57:00.648Z,2.20
2018-12-15T02:59:28.838Z,2.20
2018-12-15T03:01:57.031Z,2.20
2018-12-15T03:04:25.232Z,2.30
2018-12-15T03:06:53.453Z,2.30
2018-12-15T03:09:21.783Z,2.30
2018-12-15T03:11:49.991Z,2.30
2018-12-15T03:14:18.132Z,2.30
2018-12-15T03:16:57.674Z,2.20
2018-12-15T03:19:25.855Z,2.20
2018-12-15T03:21:54.031Z,2.30
2018-12-15T03:24:22.152Z,2.30
2018-12-15T03:26:50.372Z,2.40
2018-12-15T03:29:18.643Z,2.40
2018-12-15T03:31:46.765Z,2.40
2018-12-15T03:34:15.051Z,2.30
2018-12-15T03:36:43.268Z,2.30
2018-12-15T03:39:11.536Z,2.30
2018-12-15T03:41:39.776Z,2.30
2018-12-15T03:44:07.924Z,2.30
2018-12-15T03:46:36.328Z,2.30
2018-12-15T03:49:04.544Z,2.40
2018-12-15T03:51:32.777Z,2.40
2018-12-15T03:54:01.039Z,2.40
2018-12-15T03:56:29.180Z,2.40
2018-12-15T03:58:57.373Z,2.40
2018-12-15T04:01:25.511Z,2.50
2018-12-15T04:03:53.704Z,2.50
2018-12-15T04:06:21.848Z,2.50
2018-12-15T04:08:50.064Z,2.50
2018-12-15T04:11:18.297Z,2.50
2018-12-15T04:13:46.535Z,2.50
2018-12-15T04:16:14.713Z,2.50
2018-12-15T04:18:42.959Z,2.50
2018-12-15T04:21:11.129Z,2.50
2018-12-15T04:23:39.403Z,2.50
2018-12-15T04:26:07.559Z,2.50
2018-12-15T04:28:35.839Z,2.50
2018-12-15T04:31:04.056Z,2.50
2018-12-15T04:33:32.218Z,2.60
2018-12-15T04:36:07.463Z,2.60
2018-12-15T04:38:35.599Z,2.50
2018-12-15T04:41:03.739Z,2.60
2018-12-15T04:43:31.992Z,2.60
2018-12-15T04:46:00.389Z,2.60
2018-12-15T04:48:28.571Z,2.60
2018-12-15T04:50:56.707Z,2.60
2018-12-15T04:53:24.892Z,2.60
2018-12-15T04:55:53.147Z,2.50
2018-12-15T04:58:21.270Z,2.50
2018-12-15T05:00:49.448Z,2.60
2018-12-15T05:03:17.591Z,2.60
2018-12-15T05:05:45.879Z,2.60
2018-12-15T05:08:14.124Z,2.60
2018-12-15T05:10:42.319Z,2.50
2018-12-15T05:13:10.469Z,2.60
2018-12-15T05:15:38.749Z,2.60
2018-12-15T05:18:06.940Z,2.60
2018-12-15T05:20:35.162Z,2.60
2018-12-15T05:23:03.347Z,2.50
2018-12-15T05:25:31.533Z,2.50
2018-12-15T05:27:59.716Z,2.50
2018-12-15T05:30:27.912Z,2.50
2018-12-15T05:32:56.060Z,2.50
2018-12-15T05:35:24.256Z,2.50
2018-12-15T05:37:52.499Z,2.50
2018-12-15T05:40:20.656Z,2.50
2018-12-15T05:42:48.887Z,2.50
2018-12-15T05:45:17.123Z,2.60
2018-12-15T05:47:45.316Z,2.50
2018-12-15T05:50:13.587Z,2.50
2018-12-15T05:52:41.743Z,2.60
2018-12-15T05:55:09.907Z,2.60
2018-12-15T05:57:38.104Z,2.50
2018-12-15T06:00:07.380Z,2.50
2018-12-15T06:02:36.023Z,2.50
2018-12-15T06:05:05.027Z,2.50
2018-12-15T06:07:33.187Z,2.50
2018-12-15T06:10:01.331Z,2.50
2018-12-15T06:12:29.480Z,2.50
2018-12-15T06:14:57.638Z,2.50
2018-12-15T06:17:25.775Z,2.50
2018-12-15T06:19:53.923Z,2.60
2018-12-15T06:22:22.093Z,2.60
2018-12-15T06:24:50.413Z,2.50
2018-12-15T06:27:18.516Z,2.60
2018-12-15T06:29:46.689Z,2.50
2018-12-15T06:32:14.863Z,2.50
2018-12-15T06:34:43.091Z,2.50
2018-12-15T06:37:11.323Z,2.50
2018-12-15T06:39:39.492Z,2.60
2018-12-15T06:42:07.674Z,2.60
2018-12-15T06:44:35.827Z,2.60
2018-12-15T06:47:04.291Z,2.60
2018-12-15T06:49:32.755Z,2.50
2018-12-15T06:52:01.068Z,2.50
2018-12-15T06:54:29.307Z,2.50
2018-12-15T06:56:57.447Z,2.50
2018-12-15T06:59:25.612Z,2.50
2018-12-15T07:01:53.799Z,2.50
2018-12-15T07:04:21.959Z,2.50
2018-12-15T07:06:50.179Z,2.50
2018-12-15T07:09:18.315Z,2.60
2018-12-15T07:11:46.715Z,2.60
2018-12-15T07:14:14.931Z,2.60
2018-12-15T07:16:43.076Z,2.60
2018-12-15T07:19:11.247Z,2.60
2018-12-15T07:21:39.807Z,2.50
2018-12-15T07:24:07.995Z,2.50
2018-12-15T07:26:36.363Z,2.60
2018-12-15T07:29:04.788Z,2.60
2018-12-15T07:31:33.164Z,2.50
2018-12-15T07:34:01.503Z,2.50
2018-12-15T07:36:29.635Z,2.60
2018-12-15T07:38:57.784Z,2.60
2018-12-15T07:41:25.947Z,2.60
2018-12-15T07:43:54.087Z,2.60
2018-12-15T07:46:22.244Z,2.60
2018-12-15T07:48:51.541Z,2.70
2018-12-15T07:51:21.472Z,2.60
2018-12-15T07:53:49.648Z,2.60
2018-12-15T07:56:17.855Z,2.50
2018-12-15T07:58:46.005Z,2.40
2018-12-15T08:01:14.175Z,2.50
2018-12-15T08:03:42.347Z,2.50
2018-12-15T08:06:10.493Z,2.60
2018-12-15T08:08:38.851Z,2.60
2018-12-15T08:11:12.807Z,2.60
2018-12-15T08:13:45.224Z,2.50
2018-12-15T08:16:13.331Z,2.50
2018-12-15T08:18:42.502Z,2.50
2018-12-15T08:21:10.707Z,2.60
2018-12-15T08:23:38.870Z,2.60
2018-12-15T08:26:07.099Z,2.60
2018-12-15T08:28:34.551Z,2.60
2018-12-15T08:31:02.743Z,2.50
2018-12-15T08:33:30.883Z,2.60
2018-12-15T08:35:59.068Z,2.60
2018-12-15T08:38:27.226Z,2.50
2018-12-15T08:40:55.379Z,2.60
2018-12-15T08:43:23.671Z,2.60
2018-12-15T08:45:51.844Z,2.60
2018-12-15T08:48:19.999Z,2.60
2018-12-15T08:50:48.839Z,2.70
2018-12-15T08:53:17.051Z,2.70
2018-12-15T08:55:45.204Z,2.70
2018-12-15T08:58:14.668Z,2.70
2018-12-15T09:00:43.607Z,2.70
2018-12-15T09:03:11.743Z,2.60
2018-12-15T09:05:39.923Z,2.70
2018-12-15T09:08:08.211Z,2.60
2018-12-15T09:10:36.356Z,2.60
2018-12-15T09:13:04.532Z,2.60
2018-12-15T09:15:32.679Z,2.60
2018-12-15T09:18:00.883Z,2.60
2018-12-15T09:20:29.187Z,2.60
2018-12-15T09:22:57.427Z,2.50
2018-12-15T09:25:25.603Z,2.50
2018-12-15T09:27:53.759Z,2.50
2018-12-15T09:30:21.971Z,2.60
2018-12-15T09:32:50.187Z,2.60
2018-12-15T09:35:18.347Z,2.70
2018-12-15T09:37:46.512Z,2.70
2018-12-15T09:40:14.803Z,2.70
2018-12-15T09:42:42.987Z,2.60
2018-12-15T09:45:11.167Z,2.60
2018-12-15T09:47:39.439Z,2.60
2018-12-15T09:50:07.812Z,2.60
2018-12-15T09:52:36.014Z,2.60
2018-12-15T09:55:05.006Z,2.60
2018-12-15T09:57:33.246Z,2.60
2018-12-15T10:00:01.664Z,2.60
2018-12-15T10:02:29.947Z,2.60
2018-12-15T10:04:58.192Z,2.60
2018-12-15T10:07:26.369Z,2.60
2018-12-15T10:09:54.547Z,2.60
2018-12-15T10:12:22.687Z,2.60
2018-12-15T10:14:50.965Z,2.60
2018-12-15T10:17:19.072Z,2.70
2018-12-15T10:19:47.433Z,2.60
2018-12-15T10:22:15.560Z,2.60
2018-12-15T10:24:43.808Z,2.70
2018-12-15T10:27:12.032Z,2.70
2018-12-15T10:29:45.647Z,2.70
2018-12-15T10:32:19.291Z,2.70
2018-12-15T10:34:47.451Z,2.70
2018-12-15T10:37:15.624Z,2.70
2018-12-15T10:39:43.845Z,2.70
2018-12-15T10:42:11.975Z,2.70
2018-12-15T10:44:40.143Z,2.70
2018-12-15T10:47:08.314Z,2.70
2018-12-15T10:49:36.517Z,2.70
2018-12-15T10:52:04.663Z,2.60
2018-12-15T10:54:33.027Z,2.60
2018-12-15T10:57:01.175Z,2.60
2018-12-15T10:59:29.379Z,2.60
2018-12-15T11:01:57.539Z,2.60
2018-12-15T11:04:26.094Z,2.60
2018-12-15T11:06:54.273Z,2.60
2018-12-15T11:09:29.331Z,2.60
2018-12-15T11:11:57.608Z,2.60
2018-12-15T11:14:25.783Z,2.60
2018-12-15T11:16:54.042Z,2.60
2018-12-15T11:19:22.276Z,2.70
2018-12-15T11:21:50.471Z,2.70
2018-12-15T11:24:18.622Z,2.70
2018-12-15T11:26:46.751Z,2.70
2018-12-15T11:29:14.927Z,2.70
2018-12-15T11:31:43.100Z,2.80
2018-12-15T11:34:11.384Z,2.80
2018-12-15T11:36:39.757Z,2.80
2018-12-15T11:39:08.213Z,2.90
2018-12-15T11:41:36.427Z,2.80
2018-12-15T11:44:04.859Z,2.80
2018-12-15T11:46:33.011Z,2.80
2018-12-15T11:49:01.284Z,2.70
2018-12-15T11:51:29.555Z,2.80
2018-12-15T11:53:57.682Z,2.80
2018-12-15T11:56:25.957Z,2.80
2018-12-15T11:58:54.155Z,2.80
2018-12-15T12:01:22.387Z,2.80
2018-12-15T12:03:50.579Z,2.90
2018-12-15T12:06:18.751Z,2.90
2018-12-15T12:08:46.927Z,2.90
2018-12-15T12:11:15.205Z,3.00
2018-12-15T12:13:43.385Z,3.00
2018-12-15T12:16:11.688Z,3.00
2018-12-15T12:18:39.875Z,2.90
2018-12-15T12:21:08.022Z,3.00
2018-12-15T12:23:36.288Z,3.00
2018-12-15T12:26:04.467Z,3.00
2018-12-15T12:28:32.594Z,2.90
2018-12-15T12:31:00.760Z,2.90
2018-12-15T12:33:28.964Z,3.00
2018-12-15T12:35:57.146Z,3.00
2018-12-15T12:38:25.295Z,3.00
2018-12-15T12:40:54.010Z,2.90
2018-12-15T12:43:22.271Z,2.90
2018-12-15T12:45:50.459Z,2.90
2018-12-15T12:48:18.667Z,2.90
2018-12-15T12:50:46.859Z,2.80
2018-12-15T12:53:15.107Z,2.90
2018-12-15T12:55:43.388Z,2.80
2018-12-15T12:58:11.552Z,2.80
2018-12-15T13:00:39.727Z,2.80
2018-12-15T13:03:07.895Z,2.80
2018-12-15T13:05:36.074Z,2.80
2018-12-15T13:08:04.381Z,2.80
2018-12-15T13:10:32.499Z,2.80
2018-12-15T13:13:00.672Z,2.80
2018-12-15T13:15:28.851Z,2.80
2018-12-15T13:17:57.011Z,2.70
2018-12-15T13:20:25.143Z,2.70
2018-12-15T13:22:53.354Z,2.80
2018-12-15T13:25:21.484Z,2.70
2018-12-15T13:27:49.671Z,2.80
2018-12-15T13:30:17.887Z,2.80
2018-12-15T13:32:46.063Z,2.80
2018-12-15T13:35:14.318Z,2.80
2018-12-15T13:37:42.476Z,2.70
2018-12-15T13:40:11.026Z,2.70
2018-12-15T13:42:39.184Z,2.70
2018-12-15T13:45:07.560Z,2.70
2018-12-15T13:47:35.753Z,2.80
2018-12-15T13:50:10.125Z,2.70
2018-12-15T13:52:36.515Z,2.70
2018-12-15T13:55:05.279Z,2.70
2018-12-15T13:57:33.431Z,2.70
2018-12-15T14:00:01.686Z,2.60
2018-12-15T14:02:30.801Z,2.60
2018-12-15T14:04:59.222Z,2.60
2018-12-15T14:07:27.508Z,2.60
2018-12-15T14:09:55.695Z,2.50
2018-12-15T14:12:23.874Z,2.50
2018-12-15T14:14:52.054Z,2.60
2018-12-15T14:17:20.275Z,2.50
2018-12-15T14:19:48.491Z,2.50
2018-12-15T14:22:16.662Z,2.50
2018-12-15T14:24:44.920Z,2.50
2018-12-15T14:27:13.067Z,2.50
2018-12-15T14:29:41.256Z,2.50
2018-12-15T14:32:09.399Z,2.50
2018-12-15T14:34:37.588Z,2.50
2018-12-15T14:37:05.780Z,2.50
2018-12-15T14:39:34.073Z,2.40
2018-12-15T14:42:02.307Z,2.40
2018-12-15T14:44:30.459Z,2.40
2018-12-15T14:46:58.807Z,2.40
2018-12-15T14:49:27.022Z,2.40
2018-12-15T14:51:55.203Z,2.40
2018-12-15T14:54:23.447Z,2.40
2018-12-15T14:56:51.710Z,2.40
2018-12-15T14:59:19.927Z,2.40
2018-12-15T15:01:48.079Z,2.40
2018-12-15T15:04:16.269Z,2.40
2018-12-15T15:06:44.520Z,2.40
2018-12-15T15:09:12.695Z,2.30
2018-12-15T15:11:41.384Z,2.30
2018-12-15T15:14:09.835Z,2.30
2018-12-15T15:16:38.008Z,2.30
2018-12-15T15:19:06.243Z,2.30
2018-12-15T15:21:34.475Z,2.30
2018-12-15T15:24:02.652Z,2.30
2018-12-15T15:26:31.759Z,2.40
2018-12-15T15:28:59.887Z,2.40
2018-12-15T15:31:28.042Z,2.40
2018-12-15T15:33:56.206Z,2.40
2018-12-15T15:36:24.431Z,2.30
2018-12-15T15:38:52.669Z,2.40
2018-12-15T15:41:20.851Z,2.40
2018-12-15T15:43:49.051Z,2.40
2018-12-15T15:46:17.168Z,2.30
2018-12-15T15:48:45.348Z,2.30
2018-12-15T15:51:13.517Z,2.30
2018-12-15T15:53:41.864Z,2.30
2018-12-15T15:56:10.043Z,2.40
2018-12-15T15:58:38.179Z,2.40
2018-12-15T16:01:06.423Z,2.40
2018-12-15T16:03:35.644Z,2.40
2018-12-15T16:06:03.934Z,2.40
2018-12-15T16:08:32.075Z,2.40
2018-12-15T16:11:00.272Z,2.40
2018-12-15T16:13:28.409Z,2.40
2018-12-15T16:15:56.652Z,2.40
2018-12-15T16:18:24.902Z,2.40
2018-12-15T16:20:53.187Z,2.40
2018-12-15T16:23:21.337Z,2.40
2018-12-15T16:25:49.943Z,2.40
2018-12-15T16:28:18.132Z,2.40
2018-12-15T16:30:46.337Z,2.40
2018-12-15T16:33:14.647Z,2.30
2018-12-15T16:35:42.993Z,2.30
2018-12-15T16:38:11.216Z,2.30
2018-12-15T16:40:39.367Z,2.30
2018-12-15T16:43:07.475Z,2.30
2018-12-15T16:45:35.828Z,2.30
2018-12-15T16:48:04.096Z,2.30
2018-12-15T16:50:32.219Z,2.30
2018-12-15T16:53:00.463Z,2.30
2018-12-15T16:55:28.964Z,2.30
2018-12-15T16:57:57.159Z,2.50
2018-12-15T17:00:25.435Z,2.50
2018-12-15T17:02:53.544Z,2.50
2018-12-15T17:05:22.204Z,2.40
2018-12-15T17:07:50.435Z,2.40
2018-12-15T17:10:18.579Z,2.30
2018-12-15T17:12:46.858Z,2.20
2018-12-15T17:15:15.139Z,2.10
2018-12-15T17:17:43.337Z,2.10
2018-12-15T17:20:12.040Z,2.00
2018-12-15T17:22:40.211Z,2.00
2018-12-15T17:25:09.127Z,2.00
2018-12-15T17:27:37.291Z,2.00
2018-12-15T17:30:07.575Z,2.00
2018-12-15T17:32:35.853Z,2.00
2018-12-15T17:35:04.867Z,2.00
2018-12-15T17:37:33.036Z,2.00
2018-12-15T17:40:01.243Z,2.00
2018-12-15T17:42:29.388Z,2.00
2018-12-15T17:44:57.566Z,2.00
2018-12-15T17:47:25.738Z,2.10
2018-12-15T17:49:54.488Z,2.20
2018-12-15T17:52:22.627Z,2.20
2018-12-15T17:54:50.903Z,2.10
2018-12-15T17:57:19.043Z,2.10
2018-12-15T17:59:47.340Z,2.10
2018-12-15T18:02:15.459Z,2.20
2018-12-15T18:04:43.655Z,2.10
2018-12-15T18:07:11.895Z,2.00
2018-12-15T18:09:40.200Z,2.00
2018-12-15T18:12:08.608Z,1.90
2018-12-15T18:14:36.768Z,2.00
2018-12-15T18:17:05.093Z,1.90
2018-12-15T18:19:33.883Z,1.90
2018-12-15T18:22:02.038Z,1.90
2018-12-15T18:24:30.252Z,2.00
2018-12-15T18:26:58.421Z,1.90
2018-12-15T18:29:26.605Z,1.90
2018-12-15T18:31:54.783Z,2.00
2018-12-15T18:34:22.931Z,2.00
2018-12-15T18:36:51.078Z,1.90
2018-12-15T18:39:19.587Z,1.90
2018-12-15T18:41:47.744Z,1.80
2018-12-15T18:44:15.885Z,1.80
2018-12-15T18:46:44.134Z,1.80
2018-12-15T18:49:12.279Z,1.90
2018-12-15T18:51:40.443Z,1.90
2018-12-15T18:54:08.617Z,1.80
2018-12-15T18:56:36.889Z,1.80
2018-12-15T18:59:05.623Z,1.90
2018-12-15T19:01:33.843Z,1.90
2018-12-15T19:04:02.023Z,1.90
2018-12-15T19:06:29.495Z,1.80
2018-12-15T19:08:56.915Z,1.80
2018-12-15T19:11:25.162Z,1.80
2018-12-15T19:13:53.468Z,1.70
2018-12-15T19:16:21.595Z,1.70
2018-12-15T19:18:49.803Z,1.80
2018-12-15T19:21:22.908Z,1.70
2018-12-15T19:23:48.094Z,1.80
2018-12-15T19:26:16.233Z,1.70
2018-12-15T19:28:43.686Z,1.70
2018-12-15T19:31:11.177Z,1.70
2018-12-15T19:33:39.411Z,1.70
2018-12-15T19:36:07.599Z,1.70
2018-12-15T19:38:35.755Z,1.70
2018-12-15T19:41:03.962Z,1.70
2018-12-15T19:43:31.626Z,1.70
2018-12-15T19:45:59.187Z,1.70
2018-12-15T19:48:26.684Z,1.70
2018-12-15T19:50:54.855Z,1.60
2018-12-15T19:53:23.022Z,1.60
2018-12-15T19:55:51.204Z,1.60
2018-12-15T19:58:19.395Z,1.60
2018-12-15T20:00:47.649Z,1.60
2018-12-15T20:03:15.872Z,1.60
2018-12-15T20:05:44.040Z,1.50
2018-12-15T20:08:12.251Z,1.60
2018-12-15T20:10:40.445Z,1.60
2018-12-15T20:13:08.688Z,1.70
2018-12-15T20:15:36.847Z,1.60
2018-12-15T20:18:04.995Z,1.60
2018-12-15T20:20:33.189Z,1.60
2018-12-15T20:23:01.413Z,1.60
2018-12-15T20:25:29.681Z,1.50
2018-12-15T20:27:57.859Z,1.50
2018-12-15T20:30:26.036Z,1.50
2018-12-15T20:32:54.247Z,1.40
2018-12-15T20:35:22.409Z,1.50
2018-12-15T20:37:50.560Z,1.50
2018-12-15T20:40:18.038Z,1.40
2018-12-15T20:42:46.218Z,1.30
2018-12-15T20:45:14.456Z,1.30
2018-12-15T20:47:42.624Z,1.30
2018-12-15T20:50:10.061Z,1.30
2018-12-15T20:52:38.203Z,1.20
2018-12-15T20:55:06.742Z,1.20
2018-12-15T20:57:34.983Z,1.10
2018-12-15T21:00:02.455Z,1.10
2018-12-15T21:02:30.649Z,1.10
2018-12-15T21:04:58.801Z,1.10
2018-12-15T21:07:27.022Z,1.10
2018-12-15T21:09:55.507Z,1.10
2018-12-15T21:12:23.655Z,1.00
2018-12-15T21:14:51.928Z,1.00
2018-12-15T21:17:20.071Z,1.00
2018-12-15T21:19:48.342Z,1.00
2018-12-15T21:22:16.778Z,1.00
2018-12-15T21:24:44.959Z,0.90
2018-12-15T21:27:13.107Z,1.00
2018-12-15T21:29:40.602Z,0.90
2018-12-15T21:32:08.863Z,0.90
2018-12-15T21:34:37.044Z,0.90
2018-12-15T21:37:05.587Z,0.90
2018-12-15T21:39:33.093Z,0.80
2018-12-15T21:42:01.271Z,0.90
2018-12-15T21:44:29.586Z,0.90
2018-12-15T21:46:57.335Z,0.80
2018-12-15T21:49:25.525Z,0.80
2018-12-15T21:51:56.327Z,0.80
2018-12-15T21:54:24.239Z,0.80
2018-12-15T21:56:52.656Z,0.80
2018-12-15T21:59:20.819Z,0.80
2018-12-15T22:01:49.215Z,0.80
2018-12-15T22:04:17.634Z,0.80
2018-12-15T22:06:45.831Z,0.70
2018-12-15T22:09:13.344Z,0.80
2018-12-15T22:11:41.499Z,0.70
2018-12-15T22:14:09.337Z,0.80
2018-12-15T22:16:37.476Z,0.70
2018-12-15T22:19:05.611Z,0.70
2018-12-15T22:21:33.810Z,0.80
2018-12-15T22:24:02.040Z,0.80
2018-12-15T22:26:30.239Z,0.80
2018-12-15T22:28:58.407Z,0.70
2018-12-15T22:31:26.539Z,0.70
2018-12-15T22:33:54.703Z,0.70
2018-12-15T22:36:22.904Z,0.70
2018-12-15T22:38:51.023Z,0.70
2018-12-15T22:41:19.471Z,0.70
2018-12-15T22:43:47.615Z,0.80
2018-12-15T22:46:15.811Z,0.80
2018-12-15T22:48:44.081Z,0.80
2018-12-15T22:51:11.699Z,0.80
2018-12-15T22:53:39.964Z,0.70
2018-12-15T22:56:08.140Z,0.70
2018-12-15T22:58:35.614Z,0.70
2018-12-15T23:01:08.626Z,0.60
2018-12-15T23:03:36.799Z,0.50
2018-12-15T23:06:05.033Z,0.50
2018-12-15T23:08:33.319Z,0.60
2018-12-15T23:11:00.844Z,0.60
2018-12-15T23:13:29.142Z,0.60
2018-12-15T23:15:57.575Z,0.60
2018-12-15T23:18:25.760Z,0.60
2018-12-15T23:20:53.967Z,0.60
2018-12-15T23:23:22.126Z,0.50
2018-12-15T23:25:50.299Z,0.50
2018-12-15T23:28:18.444Z,0.60
2018-12-15T23:30:46.610Z,0.70
2018-12-15T23:33:14.791Z,0.70
2018-12-15T23:35:42.262Z,0.70
2018-12-15T23:38:10.623Z,0.70
2018-12-15T23:40:38.120Z,0.60
2018-12-15T23:43:06.272Z,0.60
2018-12-15T23:45:34.412Z,0.60
2018-12-15T23:48:02.662Z,0.50
2018-12-15T23:50:30.882Z,0.50
2018-12-15T23:52:59.194Z,0.40
2018-12-15T23:55:27.366Z,0.50
2018-12-15T23:57:54.859Z,0.40
